createdAt,value
2022-10-09T00:00:47.969Z,101347.72
2022-10-09T00:03:17.293Z,101313.19
2022-10-09T00:05:45.963Z,101350.38
2022-10-09T00:08:15.288Z,101337.09
2022-10-09T00:10:43.918Z,101353.06
2022-10-09T00:13:11.933Z,101347.78
2022-10-09T00:15:40.586Z,101335.38
2022-10-09T00:18:09.252Z,101353.94
2022-10-09T00:20:38.538Z,101347.78
2022-10-09T00:23:07.032Z,101330.94
2022-10-09T00:25:37.222Z,101352.22
2022-10-09T00:28:05.867Z,101346.03
2022-10-09T00:30:34.193Z,101347.78
2022-10-09T00:33:02.176Z,101346.00
2022-10-09T00:35:30.116Z,101319.47
2022-10-09T00:37:58.107Z,101346.91
2022-10-09T00:40:26.345Z,101357.53
2022-10-09T00:42:59.504Z,101351.31
2022-10-09T00:45:28.494Z,101352.19
2022-10-09T00:48:01.456Z,101354.84
2022-10-09T00:50:39.815Z,101343.34
2022-10-09T00:53:09.039Z,101351.34
2022-10-09T00:55:37.999Z,101346.03
2022-10-09T00:58:07.659Z,101344.25
2022-10-09T01:00:35.536Z,101358.41
2022-10-09T01:03:03.355Z,101360.19
2022-10-09T01:05:43.915Z,101345.16
2022-10-09T01:08:20.762Z,101360.19
2022-10-09T01:10:55.379Z,101361.97
2022-10-09T01:13:34.271Z,101366.41
2022-10-09T01:16:08.622Z,101319.47
2022-10-09T01:18:42.096Z,101310.56
2022-10-09T01:21:16.081Z,101353.09
2022-10-09T01:24:10.486Z,101355.75
2022-10-09T01:26:57.220Z,101327.41
2022-10-09T01:29:28.282Z,101359.31
2022-10-09T01:31:58.500Z,101344.22
2022-10-09T01:34:27.547Z,101360.19
2022-10-09T01:36:58.009Z,101364.63
2022-10-09T01:39:27.715Z,101365.47
2022-10-09T01:41:58.375Z,101337.13
2022-10-09T01:44:28.323Z,101359.31
2022-10-09T01:46:56.818Z,101340.72
2022-10-09T01:49:41.605Z,101347.78
2022-10-09T01:52:20.245Z,101354.91
2022-10-09T01:55:02.478Z,101361.97
2022-10-09T01:57:38.115Z,101323.00
2022-10-09T02:00:10.961Z,101351.34
2022-10-09T02:02:43.260Z,101342.47
2022-10-09T02:05:14.227Z,101347.78
2022-10-09T02:07:42.352Z,101347.78
2022-10-09T02:10:11.297Z,101338.94
2022-10-09T02:12:46.977Z,101345.97
2022-10-09T02:15:16.213Z,101321.19
2022-10-09T02:17:48.665Z,101220.22
2022-10-09T02:20:22.612Z,101330.91
2022-10-09T02:22:51.170Z,101317.59
2022-10-09T02:25:19.835Z,101356.53
2022-10-09T02:27:49.342Z,101353.84
2022-10-09T02:30:17.437Z,101353.88
2022-10-09T02:32:45.484Z,101358.28
2022-10-09T02:35:13.683Z,101347.66
2022-10-09T02:37:41.569Z,101359.19
2022-10-09T02:40:10.940Z,101353.88
2022-10-09T02:42:38.996Z,101318.44
2022-10-09T02:45:10.141Z,101351.28
2022-10-09T02:47:38.032Z,101338.84
2022-10-09T02:50:06.797Z,101279.47
2022-10-09T02:52:34.692Z,101352.97
2022-10-09T02:55:02.602Z,101357.38
2022-10-09T02:57:30.453Z,101351.22
2022-10-09T02:59:58.286Z,101343.19
2022-10-09T03:02:27.773Z,101352.94
2022-10-09T03:04:55.684Z,101327.25
2022-10-09T03:07:23.506Z,101361.75
2022-10-09T03:09:51.308Z,101362.63
2022-10-09T03:12:21.280Z,101361.75
2022-10-09T03:14:52.017Z,101354.66
2022-10-09T03:17:19.905Z,101364.41
2022-10-09T03:19:49.142Z,101365.22
2022-10-09T03:22:17.019Z,101356.34
2022-10-09T03:24:44.828Z,101359.06
2022-10-09T03:27:13.046Z,101363.50
2022-10-09T03:29:40.836Z,101302.34
2022-10-09T03:32:08.733Z,101368.78
2022-10-09T03:34:36.691Z,101351.97
2022-10-09T03:37:05.987Z,101367.00
2022-10-09T03:39:33.895Z,101359.97
2022-10-09T03:42:01.888Z,101308.56
2022-10-09T03:44:29.709Z,101354.69
2022-10-09T03:46:57.672Z,101370.59
2022-10-09T03:49:25.558Z,101369.75
2022-10-09T03:51:53.414Z,101250.09
2022-10-09T03:54:22.601Z,101355.56
2022-10-09T03:56:50.408Z,101372.34
2022-10-09T03:59:18.194Z,101372.34
2022-10-09T04:01:46.198Z,101372.38
2022-10-09T04:04:14.090Z,101241.28
2022-10-09T04:06:42.098Z,101353.81
2022-10-09T04:09:10.046Z,101376.84
2022-10-09T04:11:39.360Z,101385.66
2022-10-09T04:14:07.539Z,101376.75
2022-10-09T04:16:35.470Z,101366.16
2022-10-09T04:19:03.436Z,101338.66
2022-10-09T04:21:32.633Z,101374.13
2022-10-09T04:24:00.614Z,101373.25
2022-10-09T04:26:28.463Z,101374.19
2022-10-09T04:28:58.255Z,101375.09
2022-10-09T04:31:26.238Z,101349.34
2022-10-09T04:33:55.952Z,101348.44
2022-10-09T04:36:24.584Z,101358.22
2022-10-09T04:38:52.707Z,101293.50
2022-10-09T04:41:20.526Z,101378.59
2022-10-09T04:43:48.458Z,101373.28
2022-10-09T04:46:17.902Z,101379.47
2022-10-09T04:48:47.511Z,101368.84
2022-10-09T04:51:16.429Z,101372.41
2022-10-09T04:53:44.942Z,101376.84
2022-10-09T04:56:14.797Z,101375.09
2022-10-09T04:58:43.375Z,101365.34
2022-10-09T05:01:14.738Z,101144.81
2022-10-09T05:03:44.042Z,101350.31
2022-10-09T05:06:13.756Z,101368.03
2022-10-09T05:08:42.378Z,101368.91
2022-10-09T05:11:12.747Z,101364.50
2022-10-09T05:13:41.604Z,101367.16
2022-10-09T05:16:12.018Z,101333.47
2022-10-09T05:18:44.210Z,101368.91
2022-10-09T05:21:12.500Z,101340.53
2022-10-09T05:23:40.989Z,101365.38
2022-10-09T05:26:12.012Z,101364.50
2022-10-09T05:28:40.143Z,101368.94
2022-10-09T05:31:09.997Z,101357.38
2022-10-09T05:33:37.935Z,101365.31
2022-10-09T05:36:07.615Z,101359.94
2022-10-09T05:38:35.478Z,101373.16
2022-10-09T05:41:05.193Z,101341.28
2022-10-09T05:43:34.601Z,101375.75
2022-10-09T05:46:07.723Z,101344.66
2022-10-09T05:48:35.976Z,101361.53
2022-10-09T05:51:13.703Z,101366.84
2022-10-09T05:53:43.008Z,101373.97
2022-10-09T05:56:12.893Z,101372.25
2022-10-09T05:58:40.713Z,101385.59
2022-10-09T06:01:09.413Z,101383.88
2022-10-09T06:03:38.015Z,101383.03
2022-10-09T06:06:07.527Z,101386.56
2022-10-09T06:08:38.198Z,101390.06
2022-10-09T06:11:11.080Z,101392.75
2022-10-09T06:13:39.020Z,101381.31
2022-10-09T06:16:07.289Z,101389.22
2022-10-09T06:18:35.573Z,101397.19
2022-10-09T06:21:03.891Z,101391.94
2022-10-09T06:23:32.659Z,101378.63
2022-10-09T06:26:04.488Z,101334.22
2022-10-09T06:28:34.104Z,101382.13
2022-10-09T06:31:03.631Z,101389.22
2022-10-09T06:33:33.021Z,101322.81
2022-10-09T06:36:09.748Z,101351.22
2022-10-09T06:38:39.378Z,101385.81
2022-10-09T06:41:10.155Z,101392.03
2022-10-09T06:43:38.213Z,101337.06
2022-10-09T06:46:08.371Z,101349.47
2022-10-09T06:48:37.701Z,101366.34
2022-10-09T06:51:07.782Z,101393.81
2022-10-09T06:53:36.140Z,101285.78
2022-10-09T06:56:04.670Z,101397.41
2022-10-09T06:58:34.207Z,101395.63
2022-10-09T07:01:07.359Z,101390.31
2022-10-09T07:03:35.321Z,101400.06
2022-10-09T07:06:10.619Z,101338.94
2022-10-09T07:08:39.600Z,101406.28
2022-10-09T07:11:11.895Z,101392.09
2022-10-09T07:13:41.324Z,101408.03
2022-10-09T07:16:09.853Z,101295.53
2022-10-09T07:18:38.736Z,101407.16
2022-10-09T07:21:09.228Z,101409.81
2022-10-09T07:23:37.996Z,101414.25
2022-10-09T07:26:11.810Z,101416.00
2022-10-09T07:28:42.343Z,101409.81
2022-10-09T07:31:11.610Z,101386.78
2022-10-09T07:33:41.548Z,101405.38
2022-10-09T07:36:11.431Z,101404.50
2022-10-09T07:38:39.280Z,101388.53
2022-10-09T07:41:08.840Z,101411.56
2022-10-09T07:43:37.990Z,101404.47
2022-10-09T07:46:09.338Z,101352.25
2022-10-09T07:48:37.315Z,101416.03
2022-10-09T07:51:10.203Z,101417.78
2022-10-09T07:53:38.976Z,101420.44
2022-10-09T07:56:07.770Z,101415.06
2022-10-09T07:58:35.918Z,101415.03
2022-10-09T08:01:08.837Z,101417.66
2022-10-09T08:03:38.002Z,101347.63
2022-10-09T08:06:06.544Z,101413.94
2022-10-09T08:08:34.681Z,101401.31
2022-10-09T08:11:09.576Z,101369.31
2022-10-09T08:13:37.484Z,101395.97
2022-10-09T08:16:05.594Z,101395.78
2022-10-09T08:18:35.483Z,101403.56
2022-10-09T08:21:05.337Z,101353.84
2022-10-09T08:23:33.229Z,101410.38
2022-10-09T08:26:01.073Z,101402.06
2022-10-09T08:28:29.146Z,101408.03
2022-10-09T08:30:57.102Z,101400.72
2022-10-09T08:33:25.978Z,101405.03
2022-10-09T08:35:55.140Z,101402.19
2022-10-09T08:38:45.301Z,101397.47
2022-10-09T08:41:14.611Z,101375.38
2022-10-09T08:43:46.619Z,101381.16
2022-10-09T08:46:21.261Z,101388.72
2022-10-09T08:48:51.857Z,101362.13
2022-10-09T08:51:26.343Z,101392.69
2022-10-09T08:53:59.998Z,101375.75
2022-10-09T08:56:30.356Z,101374.44
2022-10-09T08:58:58.101Z,101390.09
2022-10-09T09:01:33.900Z,101366.94
2022-10-09T09:04:31.943Z,101377.13
2022-10-09T09:07:12.234Z,101376.94
2022-10-09T09:09:49.721Z,101380.03
2022-10-09T09:12:26.647Z,101357.44
2022-10-09T09:15:06.318Z,101366.81
2022-10-09T09:17:43.393Z,101367.53
2022-10-09T09:20:16.750Z,101312.31
2022-10-09T09:22:51.256Z,101366.56
2022-10-09T09:25:22.826Z,101359.25
2022-10-09T09:27:53.104Z,101322.81
2022-10-09T09:30:24.355Z,101365.91
2022-10-09T09:33:00.590Z,101361.34
2022-10-09T09:35:38.879Z,101349.38
2022-10-09T09:38:08.662Z,101349.56
2022-10-09T09:40:38.486Z,101353.81
2022-10-09T09:43:16.102Z,101354.50
2022-10-09T09:45:44.870Z,101346.09
2022-10-09T09:48:17.447Z,101331.78
2022-10-09T09:50:52.947Z,101290.09
2022-10-09T09:53:33.008Z,101331.50
2022-10-09T09:56:01.104Z,101327.22
2022-10-09T09:58:35.190Z,101321.75
2022-10-09T10:01:06.251Z,101324.63
2022-10-09T10:03:35.336Z,101320.78
2022-10-09T10:06:03.587Z,101318.00
2022-10-09T10:08:34.542Z,101316.72
2022-10-09T10:11:06.243Z,101210.75
2022-10-09T10:13:38.037Z,101314.81
2022-10-09T10:16:08.579Z,101310.50
2022-10-09T10:18:41.423Z,101304.13
2022-10-09T10:21:14.259Z,101306.56
2022-10-09T10:23:46.637Z,101311.13
2022-10-09T10:26:24.206Z,101304.16
2022-10-09T10:28:58.603Z,101303.13
2022-10-09T10:31:46.934Z,101277.03
2022-10-09T10:34:24.165Z,101295.50
2022-10-09T10:37:02.512Z,101293.47
2022-10-09T10:39:38.668Z,101289.53
2022-10-09T10:42:16.090Z,101294.25
2022-10-09T10:44:53.653Z,101273.09
2022-10-09T10:47:25.450Z,101264.00
2022-10-09T10:49:53.855Z,101279.13
2022-10-09T10:52:35.189Z,101270.19
2022-10-09T10:55:21.985Z,101261.28
2022-10-09T10:57:56.615Z,101269.59
2022-10-09T11:00:24.593Z,101229.28
2022-10-09T11:03:25.005Z,101229.78
2022-10-09T11:05:55.969Z,101263.25
2022-10-09T11:08:44.727Z,101255.31
2022-10-09T11:11:22.837Z,101229.59
2022-10-09T11:13:59.754Z,101251.22
2022-10-09T11:16:39.509Z,101215.66
2022-10-09T11:19:45.253Z,101240.22
2022-10-09T11:22:30.008Z,101235.72
2022-10-09T11:25:10.039Z,101238.75
2022-10-09T11:27:48.384Z,101228.03
2022-10-09T11:30:17.926Z,101216.25
2022-10-09T11:32:56.654Z,101218.81
2022-10-09T11:35:26.550Z,101217.31
2022-10-09T11:38:01.111Z,101214.06
2022-10-09T11:40:34.775Z,101205.66
2022-10-09T11:43:18.637Z,101199.88
2022-10-09T11:45:52.568Z,101191.66
2022-10-09T11:48:30.768Z,101198.63
2022-10-09T11:51:04.668Z,101200.97
2022-10-09T11:53:36.934Z,101194.31
2022-10-09T11:56:07.060Z,101170.59
2022-10-09T11:58:36.914Z,101181.88
2022-10-09T12:01:23.887Z,101175.75
2022-10-09T12:04:02.898Z,101082.00
2022-10-09T12:06:31.801Z,101169.72
2022-10-09T12:09:01.989Z,101170.72
2022-10-09T12:11:30.882Z,101162.13
2022-10-09T12:14:02.632Z,101109.63
2022-10-09T12:16:39.210Z,101158.34
2022-10-09T12:19:16.621Z,101152.91
2022-10-09T12:21:52.086Z,101151.03
2022-10-09T12:24:24.232Z,101144.88
2022-10-09T12:26:54.600Z,101142.81
2022-10-09T12:29:29.788Z,101140.94
2022-10-09T12:32:02.869Z,101133.81
2022-10-09T12:34:34.861Z,101131.91
2022-10-09T12:37:12.651Z,101106.19
2022-10-09T12:39:41.198Z,101109.94
2022-10-09T12:42:16.377Z,100995.63
2022-10-09T12:44:47.272Z,101119.25
2022-10-09T12:47:20.317Z,101115.13
2022-10-09T12:50:04.717Z,101111.31
2022-10-09T12:52:33.719Z,101092.97
2022-10-09T12:55:03.556Z,101099.84
2022-10-09T12:57:31.599Z,101085.06
2022-10-09T13:00:01.305Z,101096.75
2022-10-09T13:02:29.301Z,101082.38
2022-10-09T13:05:00.259Z,101022.44
2022-10-09T13:07:30.276Z,101089.22
2022-10-09T13:10:01.448Z,101081.31
2022-10-09T13:12:31.987Z,101078.66
2022-10-09T13:15:02.602Z,101070.38
2022-10-09T13:17:33.794Z,101069.81
2022-10-09T13:20:05.803Z,101073.22
2022-10-09T13:22:35.952Z,101051.06
2022-10-09T13:25:04.462Z,101060.84
2022-10-09T13:27:35.955Z,101064.91
2022-10-09T13:30:06.590Z,100963.38
2022-10-09T13:32:34.643Z,100974.22
2022-10-09T13:35:02.476Z,100975.16
2022-10-09T13:37:30.378Z,101048.94
2022-10-09T13:40:00.549Z,101044.88
2022-10-09T13:42:31.489Z,101037.81
2022-10-09T13:44:59.589Z,101038.47
2022-10-09T13:47:29.297Z,101039.44
2022-10-09T13:49:57.501Z,101024.53
2022-10-09T13:52:25.428Z,101029.25
2022-10-09T13:54:53.286Z,101025.28
2022-10-09T13:57:21.184Z,101022.72
2022-10-09T13:59:49.057Z,100923.53
2022-10-09T14:02:17.065Z,101016.44
2022-10-09T14:04:46.232Z,101009.66
2022-10-09T14:07:14.111Z,101008.94
2022-10-09T14:09:42.000Z,100975.41
2022-10-09T14:12:09.988Z,100987.94
2022-10-09T14:14:37.959Z,100995.19
2022-10-09T14:17:05.811Z,100960.25
2022-10-09T14:19:33.675Z,100980.16
2022-10-09T14:22:03.043Z,100979.84
2022-10-09T14:24:31.081Z,100977.16
2022-10-09T14:26:58.986Z,100932.88
2022-10-09T14:29:26.781Z,100959.59
2022-10-09T14:31:54.657Z,100921.75
2022-10-09T14:34:22.683Z,100961.25
2022-10-09T14:36:50.774Z,100935.66
2022-10-09T14:39:19.995Z,100947.25
2022-10-09T14:41:47.960Z,100943.34
2022-10-09T14:44:15.833Z,100909.88
2022-10-09T14:46:43.741Z,100928.75
2022-10-09T14:49:12.189Z,100930.72
2022-10-09T14:51:41.505Z,100801.00
2022-10-09T14:54:11.919Z,100908.56
2022-10-09T14:56:41.556Z,100892.38
2022-10-09T14:59:09.490Z,100903.31
2022-10-09T15:01:37.705Z,100913.81
2022-10-09T15:04:06.397Z,100911.84
2022-10-09T15:06:34.969Z,100908.13
2022-10-09T15:09:05.837Z,100888.16
2022-10-09T15:11:35.357Z,100893.13
2022-10-09T15:14:05.137Z,100899.59
2022-10-09T15:16:33.186Z,100895.22
2022-10-09T15:19:01.359Z,100887.25
2022-10-09T15:21:30.766Z,100843.09
2022-10-09T15:24:00.238Z,100880.59
2022-10-09T15:26:29.680Z,100872.19
2022-10-09T15:28:57.829Z,100868.69
2022-10-09T15:31:28.927Z,100881.09
2022-10-09T15:33:58.634Z,100875.09
2022-10-09T15:36:26.670Z,100806.63
2022-10-09T15:38:54.645Z,100864.31
2022-10-09T15:41:24.166Z,100849.72
2022-10-09T15:43:54.975Z,100840.00
2022-10-09T15:46:24.063Z,100853.88
2022-10-09T15:48:53.924Z,100824.13
2022-10-09T15:51:21.958Z,100826.97
2022-10-09T15:53:51.357Z,100852.41
2022-10-09T15:56:21.386Z,100818.06
2022-10-09T15:58:49.515Z,100846.91
2022-10-09T16:01:18.604Z,100848.72
2022-10-09T16:03:46.966Z,100806.63
2022-10-09T16:06:18.378Z,100816.72
2022-10-09T16:08:46.509Z,100841.38
2022-10-09T16:11:17.936Z,100817.13
2022-10-09T16:13:48.621Z,100835.03
2022-10-09T16:16:18.209Z,100836.06
2022-10-09T16:18:46.869Z,100821.81
2022-10-09T16:21:18.007Z,100830.75
2022-10-09T16:23:46.619Z,100814.22
2022-10-09T16:26:16.879Z,100806.09
2022-10-09T16:28:45.134Z,100837.63
2022-10-09T16:31:19.624Z,100834.50
2022-10-09T16:33:47.712Z,100779.06
2022-10-09T16:36:16.984Z,100841.97
2022-10-09T16:38:45.212Z,100813.66
2022-10-09T16:41:17.803Z,100831.44
2022-10-09T16:43:46.318Z,100835.13
2022-10-09T16:46:19.080Z,100817.91
2022-10-09T16:48:47.808Z,100825.34
2022-10-09T16:51:21.257Z,100815.41
2022-10-09T16:53:50.555Z,100829.88
2022-10-09T16:56:21.254Z,100821.41
2022-10-09T16:58:49.553Z,100833.38
2022-10-09T17:01:17.601Z,100824.66
2022-10-09T17:03:46.812Z,100803.41
2022-10-09T17:06:19.572Z,100829.84
2022-10-09T17:08:48.298Z,100829.69
2022-10-09T17:11:17.250Z,100832.34
2022-10-09T17:13:45.893Z,100813.38
2022-10-09T17:16:18.418Z,100702.22
2022-10-09T17:18:47.223Z,100789.44
2022-10-09T17:21:18.321Z,100826.88
2022-10-09T17:23:47.472Z,100819.97
2022-10-09T17:26:17.357Z,100816.53
2022-10-09T17:28:46.394Z,100797.50
2022-10-09T17:31:16.558Z,100768.06
2022-10-09T17:33:46.284Z,100822.00
2022-10-09T17:36:18.128Z,100794.69
2022-10-09T17:38:46.948Z,100822.13
2022-10-09T17:41:16.455Z,100820.50
2022-10-09T17:43:44.823Z,100829.63
2022-10-09T17:46:15.191Z,100817.47
2022-10-09T17:48:45.023Z,100815.91
2022-10-09T17:51:18.206Z,100716.78
2022-10-09T17:53:47.674Z,100816.06
2022-10-09T17:56:15.743Z,100817.94
2022-10-09T17:58:44.434Z,100822.56
2022-10-09T18:01:14.139Z,100803.22
2022-10-09T18:03:42.582Z,100724.38
2022-10-09T18:06:14.664Z,100805.31
2022-10-09T18:08:44.917Z,100785.22
2022-10-09T18:11:14.780Z,100806.19
2022-10-09T18:13:44.024Z,100795.59
2022-10-09T18:16:14.082Z,100808.94
2022-10-09T18:18:42.069Z,100739.81
2022-10-09T18:21:12.438Z,100799.63
2022-10-09T18:23:42.955Z,100794.38
2022-10-09T18:26:14.601Z,100740.31
2022-10-09T18:28:44.815Z,100801.72
2022-10-09T18:31:18.909Z,100758.69
2022-10-09T18:33:47.026Z,100769.03
2022-10-09T18:36:19.577Z,100762.41
2022-10-09T18:38:51.643Z,100798.25
2022-10-09T18:41:20.645Z,100782.56
2022-10-09T18:43:49.684Z,100785.97
2022-10-09T18:46:20.469Z,100782.44
2022-10-09T18:48:49.135Z,100780.25
2022-10-09T18:51:19.381Z,100753.00
2022-10-09T18:53:53.207Z,100776.91
2022-10-09T18:56:22.849Z,100767.13
2022-10-09T18:58:53.669Z,100776.97
2022-10-09T19:01:21.755Z,100755.00
2022-10-09T19:03:50.387Z,100768.78
2022-10-09T19:06:19.178Z,100769.97
2022-10-09T19:08:47.242Z,100738.50
2022-10-09T19:11:16.772Z,100763.19
2022-10-09T19:13:46.006Z,100755.13
2022-10-09T19:16:13.998Z,100760.59
2022-10-09T19:18:41.910Z,100723.63
2022-10-09T19:21:14.077Z,100743.69
2022-10-09T19:23:42.786Z,100735.91
2022-10-09T19:26:13.522Z,100746.34
2022-10-09T19:28:42.858Z,100696.66
2022-10-09T19:31:11.771Z,100738.06
2022-10-09T19:33:40.469Z,100737.34
2022-10-09T19:36:10.729Z,100699.66
2022-10-09T19:38:38.423Z,100734.06
2022-10-09T19:41:07.767Z,100712.38
2022-10-09T19:43:35.670Z,100736.97
2022-10-09T19:46:07.982Z,100736.22
2022-10-09T19:48:36.632Z,100682.47
2022-10-09T19:51:06.913Z,100737.09
2022-10-09T19:53:34.897Z,100730.81
2022-10-09T19:56:03.349Z,100705.28
2022-10-09T19:58:31.407Z,100729.06
2022-10-09T20:00:59.277Z,100707.09
2022-10-09T20:03:28.541Z,100715.13
2022-10-09T20:05:56.575Z,100720.66
2022-10-09T20:08:24.530Z,100715.41
2022-10-09T20:10:52.602Z,100709.28
2022-10-09T20:13:20.622Z,100719.34
2022-10-09T20:15:48.480Z,100720.84
2022-10-09T20:18:16.430Z,100721.75
2022-10-09T20:20:49.200Z,100718.97
2022-10-09T20:23:17.014Z,100713.53
2022-10-09T20:25:44.855Z,100669.78
2022-10-09T20:28:13.213Z,100678.50
2022-10-09T20:30:41.459Z,100704.06
2022-10-09T20:33:09.784Z,100697.78
2022-10-09T20:35:42.635Z,100696.84
2022-10-09T20:38:12.063Z,100661.69
2022-10-09T20:40:39.864Z,100689.94
2022-10-09T20:43:07.778Z,100690.41
2022-10-09T20:45:40.742Z,100690.94
2022-10-09T20:48:09.289Z,100684.00
2022-10-09T20:50:37.743Z,100676.13
2022-10-09T20:53:06.775Z,100677.03
2022-10-09T20:55:36.198Z,100680.69
2022-10-09T20:58:04.515Z,100669.88
2022-10-09T21:00:32.453Z,100668.22
2022-10-09T21:03:00.395Z,100664.38
2022-10-09T21:05:28.351Z,100671.56
2022-10-09T21:07:56.149Z,100669.88
2022-10-09T21:10:24.042Z,100667.44
2022-10-09T21:12:53.460Z,100612.09
2022-10-09T21:15:22.122Z,100639.50
2022-10-09T21:17:49.931Z,100667.75
2022-10-09T21:20:18.132Z,100672.38
2022-10-09T21:22:45.978Z,100652.94
2022-10-09T21:25:14.073Z,100621.31
2022-10-09T21:27:42.051Z,100644.13
2022-10-09T21:30:12.895Z,100658.16
2022-10-09T21:32:40.918Z,100624.91
2022-10-09T21:35:09.269Z,100639.09
2022-10-09T21:37:37.648Z,100652.94
2022-10-09T21:40:06.118Z,100655.88
2022-10-09T21:42:34.058Z,100633.09
2022-10-09T21:45:01.892Z,100650.88
2022-10-09T21:47:31.188Z,100640.03
2022-10-09T21:49:59.097Z,100646.41
2022-10-09T21:52:26.961Z,100644.75
2022-10-09T21:54:54.847Z,100649.34
2022-10-09T21:57:22.780Z,100641.81
2022-10-09T21:59:50.698Z,100620.66
2022-10-09T22:02:18.627Z,100637.59
2022-10-09T22:04:48.080Z,100632.44
2022-10-09T22:07:15.908Z,100627.13
2022-10-09T22:09:43.959Z,100624.59
2022-10-09T22:12:11.856Z,100585.81
2022-10-09T22:14:39.794Z,100626.13
2022-10-09T22:17:07.648Z,100615.41
2022-10-09T22:19:35.593Z,100601.16
2022-10-09T22:22:04.886Z,100574.59
2022-10-09T22:24:33.058Z,100608.56
2022-10-09T22:27:00.908Z,100580.44
2022-10-09T22:29:28.913Z,100603.25
2022-10-09T22:31:56.925Z,100605.22
2022-10-09T22:34:24.705Z,100601.81
2022-10-09T22:36:52.579Z,100597.50
2022-10-09T22:39:21.752Z,100558.13
2022-10-09T22:41:49.570Z,100584.34
2022-10-09T22:44:17.391Z,100577.41
2022-10-09T22:46:45.778Z,100576.47
2022-10-09T22:49:15.119Z,100557.00
2022-10-09T22:51:43.084Z,100581.66
2022-10-09T22:54:12.820Z,100566.63
2022-10-09T22:56:46.887Z,100577.97
2022-10-09T22:59:16.717Z,100564.88
2022-10-09T23:01:48.413Z,100558.72
2022-10-09T23:04:18.116Z,100528.06
2022-10-09T23:06:47.284Z,100571.28
2022-10-09T23:09:16.338Z,100566.97
2022-10-09T23:11:46.272Z,100541.56
2022-10-09T23:14:14.571Z,100550.34
2022-10-09T23:16:43.003Z,100524.84
2022-10-09T23:19:11.821Z,100551.41
2022-10-09T23:21:41.491Z,100526.00
2022-10-09T23:24:11.519Z,100556.78
2022-10-09T23:26:39.491Z,100512.88
2022-10-09T23:29:13.314Z,100555.91
2022-10-09T23:31:41.179Z,100525.34
2022-10-09T23:34:09.015Z,100556.03
2022-10-09T23:36:36.886Z,100496.06
2022-10-09T23:39:06.493Z,100510.19
2022-10-09T23:41:34.347Z,100547.13
2022-10-09T23:44:02.332Z,100540.25
2022-10-09T23:46:33.925Z,100510.44
2022-10-09T23:49:02.179Z,100534.28
2022-10-09T23:51:30.709Z,100422.69
2022-10-09T23:53:58.908Z,100534.50
2022-10-09T23:56:28.862Z,100530.84
2022-10-09T23:58:57.928Z,100526.50
